sensor_id;sensor_type;location;lat;lon;timestamp;P1;durP1;ratioP1;P2;durP2;ratioP2
68216;SDS011;55037;52.354;4.992;2023-07-24T00:01:56;7.55;;;3.95;;
68216;SDS011;55037;52.354;4.992;2023-07-24T00:04:23;7.40;;;4.80;;
68216;SDS011;55037;52.354;4.992;2023-07-24T00:06:50;9.68;;;5.40;;
68216;SDS011;55037;52.354;4.992;2023-07-24T00:09:17;10.67;;;5.13;;
68216;SDS011;55037;52.354;4.992;2023-07-24T00:11:45;6.30;;;3.88;;
68216;SDS011;55037;52.354;4.992;2023-07-24T00:14:12;9.52;;;4.50;;
68216;SDS011;55037;52.354;4.992;2023-07-24T00:16:39;7.07;;;4.30;;
68216;SDS011;55037;52.354;4.992;2023-07-24T00:19:07;8.60;;;5.38;;
68216;SDS011;55037;52.354;4.992;2023-07-24T00:21:34;8.83;;;5.67;;
68216;SDS011;55037;52.354;4.992;2023-07-24T00:24:01;7.60;;;5.32;;
68216;SDS011;55037;52.354;4.992;2023-07-24T00:26:29;7.47;;;4.93;;
68216;SDS011;55037;52.354;4.992;2023-07-24T00:28:58;11.38;;;6.03;;
68216;SDS011;55037;52.354;4.992;2023-07-24T00:31:27;10.30;;;5.60;;
68216;SDS011;55037;52.354;4.992;2023-07-24T00:33:54;8.40;;;4.80;;
68216;SDS011;55037;52.354;4.992;2023-07-24T00:36:22;9.52;;;4.55;;
68216;SDS011;55037;52.354;4.992;2023-07-24T00:38:49;8.00;;;5.03;;
68216;SDS011;55037;52.354;4.992;2023-07-24T00:41:16;8.65;;;5.05;;
68216;SDS011;55037;52.354;4.992;2023-07-24T00:43:43;10.35;;;5.75;;
68216;SDS011;55037;52.354;4.992;2023-07-24T00:46:11;8.80;;;5.27;;
68216;SDS011;55037;52.354;4.992;2023-07-24T00:48:38;9.25;;;4.93;;
68216;SDS011;55037;52.354;4.992;2023-07-24T00:51:07;8.05;;;4.97;;
68216;SDS011;55037;52.354;4.992;2023-07-24T00:53:34;10.32;;;4.80;;
68216;SDS011;55037;52.354;4.992;2023-07-24T00:56:02;8.50;;;4.43;;
68216;SDS011;55037;52.354;4.992;2023-07-24T00:58:29;7.73;;;4.77;;
68216;SDS011;55037;52.354;4.992;2023-07-24T01:00:57;7.85;;;4.30;;
68216;SDS011;55037;52.354;4.992;2023-07-24T01:03:33;6.28;;;3.95;;
68216;SDS011;55037;52.354;4.992;2023-07-24T01:06:03;9.20;;;5.15;;
68216;SDS011;55037;52.354;4.992;2023-07-24T01:08:30;8.18;;;4.97;;
68216;SDS011;55037;52.354;4.992;2023-07-24T01:11:00;11.93;;;3.93;;
68216;SDS011;55037;52.354;4.992;2023-07-24T01:13:40;8.93;;;5.50;;
68216;SDS011;55037;52.354;4.992;2023-07-24T01:16:14;9.02;;;5.85;;
68216;SDS011;55037;52.354;4.992;2023-07-24T01:18:45;6.50;;;3.58;;
68216;SDS011;55037;52.354;4.992;2023-07-24T01:21:17;6.38;;;4.90;;
68216;SDS011;55037;52.354;4.992;2023-07-24T01:26:54;8.95;;;5.32;;
68216;SDS011;55037;52.354;4.992;2023-07-24T01:29:22;9.02;;;4.82;;
68216;SDS011;55037;52.354;4.992;2023-07-24T01:31:49;8.50;;;5.63;;
68216;SDS011;55037;52.354;4.992;2023-07-24T01:34:17;11.18;;;5.95;;
68216;SDS011;55037;52.354;4.992;2023-07-24T01:36:45;7.73;;;4.13;;
68216;SDS011;55037;52.354;4.992;2023-07-24T01:39:13;7.00;;;4.30;;
68216;SDS011;55037;52.354;4.992;2023-07-24T01:41:41;8.48;;;5.32;;
68216;SDS011;55037;52.354;4.992;2023-07-24T01:44:10;7.82;;;4.57;;
68216;SDS011;55037;52.354;4.992;2023-07-24T01:46:37;9.57;;;6.07;;
68216;SDS011;55037;52.354;4.992;2023-07-24T01:49:04;6.33;;;4.63;;
68216;SDS011;55037;52.354;4.992;2023-07-24T01:51:31;8.45;;;4.85;;
68216;SDS011;55037;52.354;4.992;2023-07-24T01:53:59;6.82;;;4.53;;
68216;SDS011;55037;52.354;4.992;2023-07-24T01:56:27;8.13;;;4.63;;
68216;SDS011;55037;52.354;4.992;2023-07-24T01:58:54;7.35;;;5.05;;
68216;SDS011;55037;52.354;4.992;2023-07-24T02:01:22;6.30;;;4.50;;
68216;SDS011;55037;52.354;4.992;2023-07-24T02:03:49;7.22;;;3.90;;
68216;SDS011;55037;52.354;4.992;2023-07-24T02:06:16;8.05;;;4.97;;
68216;SDS011;55037;52.354;4.992;2023-07-24T02:08:44;7.75;;;4.68;;
68216;SDS011;55037;52.354;4.992;2023-07-24T02:11:15;9.57;;;5.63;;
68216;SDS011;55037;52.354;4.992;2023-07-24T02:13:43;10.47;;;4.80;;
68216;SDS011;55037;52.354;4.992;2023-07-24T02:16:12;8.10;;;4.72;;
68216;SDS011;55037;52.354;4.992;2023-07-24T02:18:42;7.55;;;4.35;;
68216;SDS011;55037;52.354;4.992;2023-07-24T02:21:10;7.70;;;4.72;;
68216;SDS011;55037;52.354;4.992;2023-07-24T02:23:37;8.25;;;4.88;;
68216;SDS011;55037;52.354;4.992;2023-07-24T02:26:05;11.93;;;6.17;;
68216;SDS011;55037;52.354;4.992;2023-07-24T02:28:33;7.30;;;4.50;;
68216;SDS011;55037;52.354;4.992;2023-07-24T02:31:01;10.00;;;5.20;;
68216;SDS011;55037;52.354;4.992;2023-07-24T02:33:28;7.88;;;4.85;;
68216;SDS011;55037;52.354;4.992;2023-07-24T02:35:55;9.48;;;5.82;;
68216;SDS011;55037;52.354;4.992;2023-07-24T02:38:22;10.37;;;6.27;;
68216;SDS011;55037;52.354;4.992;2023-07-24T02:40:50;9.32;;;5.25;;
68216;SDS011;55037;52.354;4.992;2023-07-24T02:43:17;11.85;;;6.53;;
68216;SDS011;55037;52.354;4.992;2023-07-24T02:45:44;16.80;;;6.70;;
68216;SDS011;55037;52.354;4.992;2023-07-24T02:48:12;12.38;;;6.35;;
68216;SDS011;55037;52.354;4.992;2023-07-24T02:50:39;11.23;;;5.50;;
68216;SDS011;55037;52.354;4.992;2023-07-24T02:53:06;8.10;;;5.38;;
68216;SDS011;55037;52.354;4.992;2023-07-24T02:55:34;12.82;;;6.25;;
68216;SDS011;55037;52.354;4.992;2023-07-24T02:58:01;8.48;;;5.95;;
68216;SDS011;55037;52.354;4.992;2023-07-24T03:00:28;10.35;;;6.38;;
68216;SDS011;55037;52.354;4.992;2023-07-24T03:02:56;10.93;;;6.13;;
68216;SDS011;55037;52.354;4.992;2023-07-24T03:05:23;10.45;;;6.30;;
68216;SDS011;55037;52.354;4.992;2023-07-24T03:07:51;9.80;;;6.28;;
68216;SDS011;55037;52.354;4.992;2023-07-24T03:10:19;8.50;;;5.22;;
68216;SDS011;55037;52.354;4.992;2023-07-24T03:12:46;9.93;;;6.22;;
68216;SDS011;55037;52.354;4.992;2023-07-24T03:15:14;9.77;;;5.33;;
68216;SDS011;55037;52.354;4.992;2023-07-24T03:17:41;10.65;;;5.70;;
68216;SDS011;55037;52.354;4.992;2023-07-24T03:20:13;9.82;;;5.90;;
68216;SDS011;55037;52.354;4.992;2023-07-24T03:22:42;7.57;;;5.05;;
68216;SDS011;55037;52.354;4.992;2023-07-24T03:25:10;10.35;;;5.28;;
68216;SDS011;55037;52.354;4.992;2023-07-24T03:27:37;12.90;;;6.17;;
68216;SDS011;55037;52.354;4.992;2023-07-24T03:30:05;12.02;;;6.45;;
68216;SDS011;55037;52.354;4.992;2023-07-24T03:32:33;8.63;;;4.13;;
68216;SDS011;55037;52.354;4.992;2023-07-24T03:35:00;10.45;;;4.90;;
68216;SDS011;55037;52.354;4.992;2023-07-24T03:37:28;10.35;;;5.22;;
68216;SDS011;55037;52.354;4.992;2023-07-24T03:39:55;8.97;;;4.23;;
68216;SDS011;55037;52.354;4.992;2023-07-24T03:42:32;10.73;;;5.55;;
68216;SDS011;55037;52.354;4.992;2023-07-24T03:44:59;11.18;;;5.20;;
68216;SDS011;55037;52.354;4.992;2023-07-24T03:47:26;9.68;;;4.25;;
68216;SDS011;55037;52.354;4.992;2023-07-24T03:49:54;9.63;;;5.10;;
68216;SDS011;55037;52.354;4.992;2023-07-24T03:52:21;11.23;;;5.20;;
68216;SDS011;55037;52.354;4.992;2023-07-24T03:54:49;10.70;;;4.70;;
68216;SDS011;55037;52.354;4.992;2023-07-24T03:57:17;10.48;;;5.35;;
68216;SDS011;55037;52.354;4.992;2023-07-24T03:59:45;12.75;;;5.65;;
68216;SDS011;55037;52.354;4.992;2023-07-24T04:02:15;11.93;;;4.90;;
68216;SDS011;55037;52.354;4.992;2023-07-24T04:04:42;14.67;;;4.63;;
68216;SDS011;55037;52.354;4.992;2023-07-24T04:07:09;12.40;;;5.28;;
68216;SDS011;55037;52.354;4.992;2023-07-24T04:09:37;11.25;;;4.65;;
68216;SDS011;55037;52.354;4.992;2023-07-24T04:12:04;11.02;;;5.18;;
68216;SDS011;55037;52.354;4.992;2023-07-24T04:14:32;12.27;;;4.40;;
68216;SDS011;55037;52.354;4.992;2023-07-24T04:16:59;11.47;;;5.47;;
68216;SDS011;55037;52.354;4.992;2023-07-24T04:19:27;12.48;;;5.07;;
68216;SDS011;55037;52.354;4.992;2023-07-24T04:21:54;12.10;;;5.30;;
68216;SDS011;55037;52.354;4.992;2023-07-24T04:24:21;10.63;;;4.53;;
68216;SDS011;55037;52.354;4.992;2023-07-24T04:26:49;9.63;;;4.18;;
68216;SDS011;55037;52.354;4.992;2023-07-24T04:29:16;15.50;;;6.27;;
68216;SDS011;55037;52.354;4.992;2023-07-24T04:31:43;12.18;;;4.55;;
68216;SDS011;55037;52.354;4.992;2023-07-24T04:34:10;8.70;;;5.45;;
68216;SDS011;55037;52.354;4.992;2023-07-24T04:36:37;11.20;;;5.10;;
68216;SDS011;55037;52.354;4.992;2023-07-24T04:39:05;11.13;;;5.47;;
68216;SDS011;55037;52.354;4.992;2023-07-24T04:41:32;8.53;;;4.00;;
68216;SDS011;55037;52.354;4.992;2023-07-24T04:43:59;8.85;;;4.45;;
68216;SDS011;55037;52.354;4.992;2023-07-24T04:46:27;10.80;;;4.20;;
68216;SDS011;55037;52.354;4.992;2023-07-24T04:48:55;12.40;;;5.50;;
68216;SDS011;55037;52.354;4.992;2023-07-24T04:51:22;11.77;;;4.93;;
68216;SDS011;55037;52.354;4.992;2023-07-24T04:53:49;7.67;;;4.47;;
68216;SDS011;55037;52.354;4.992;2023-07-24T04:56:17;15.55;;;4.88;;
68216;SDS011;55037;52.354;4.992;2023-07-24T04:58:44;12.45;;;5.25;;
68216;SDS011;55037;52.354;4.992;2023-07-24T05:01:12;8.38;;;4.50;;
68216;SDS011;55037;52.354;4.992;2023-07-24T05:03:39;11.93;;;5.40;;
68216;SDS011;55037;52.354;4.992;2023-07-24T05:06:06;12.20;;;5.50;;
68216;SDS011;55037;52.354;4.992;2023-07-24T05:08:33;9.73;;;4.82;;
68216;SDS011;55037;52.354;4.992;2023-07-24T05:11:01;12.80;;;5.32;;
68216;SDS011;55037;52.354;4.992;2023-07-24T05:13:28;11.85;;;5.25;;
68216;SDS011;55037;52.354;4.992;2023-07-24T05:15:55;13.65;;;5.28;;
68216;SDS011;55037;52.354;4.992;2023-07-24T05:18:23;13.17;;;5.47;;
68216;SDS011;55037;52.354;4.992;2023-07-24T05:20:50;11.43;;;4.53;;
68216;SDS011;55037;52.354;4.992;2023-07-24T05:23:20;11.32;;;4.68;;
68216;SDS011;55037;52.354;4.992;2023-07-24T05:25:55;16.33;;;4.18;;
68216;SDS011;55037;52.354;4.992;2023-07-24T05:28:25;12.55;;;5.32;;
68216;SDS011;55037;52.354;4.992;2023-07-24T05:30:54;10.80;;;4.63;;
68216;SDS011;55037;52.354;4.992;2023-07-24T05:33:21;11.32;;;4.22;;
68216;SDS011;55037;52.354;4.992;2023-07-24T05:35:48;7.93;;;3.65;;
68216;SDS011;55037;52.354;4.992;2023-07-24T05:38:16;11.05;;;4.82;;
68216;SDS011;55037;52.354;4.992;2023-07-24T05:40:43;10.23;;;4.82;;
68216;SDS011;55037;52.354;4.992;2023-07-24T05:43:11;11.50;;;4.57;;
68216;SDS011;55037;52.354;4.992;2023-07-24T05:45:38;10.35;;;4.28;;
68216;SDS011;55037;52.354;4.992;2023-07-24T05:48:05;14.35;;;4.90;;
68216;SDS011;55037;52.354;4.992;2023-07-24T05:50:33;9.77;;;4.60;;
68216;SDS011;55037;52.354;4.992;2023-07-24T05:53:00;10.48;;;4.60;;
68216;SDS011;55037;52.354;4.992;2023-07-24T05:55:27;9.37;;;4.20;;
68216;SDS011;55037;52.354;4.992;2023-07-24T05:57:55;11.70;;;4.72;;
68216;SDS011;55037;52.354;4.992;2023-07-24T06:00:22;13.13;;;5.28;;
68216;SDS011;55037;52.354;4.992;2023-07-24T06:02:49;12.88;;;4.72;;
68216;SDS011;55037;52.354;4.992;2023-07-24T06:05:17;11.60;;;5.85;;
68216;SDS011;55037;52.354;4.992;2023-07-24T06:07:44;9.60;;;4.27;;
68216;SDS011;55037;52.354;4.992;2023-07-24T06:10:11;17.63;;;5.50;;
68216;SDS011;55037;52.354;4.992;2023-07-24T06:12:39;14.63;;;5.22;;
68216;SDS011;55037;52.354;4.992;2023-07-24T06:15:06;12.82;;;5.38;;
68216;SDS011;55037;52.354;4.992;2023-07-24T06:17:34;13.27;;;5.57;;
68216;SDS011;55037;52.354;4.992;2023-07-24T06:20:01;8.50;;;4.20;;
68216;SDS011;55037;52.354;4.992;2023-07-24T06:22:28;13.35;;;4.70;;
68216;SDS011;55037;52.354;4.992;2023-07-24T06:24:56;10.93;;;4.75;;
68216;SDS011;55037;52.354;4.992;2023-07-24T06:27:23;12.52;;;5.47;;
68216;SDS011;55037;52.354;4.992;2023-07-24T06:29:50;12.20;;;4.50;;
68216;SDS011;55037;52.354;4.992;2023-07-24T06:32:21;19.10;;;7.63;;
68216;SDS011;55037;52.354;4.992;2023-07-24T06:34:49;20.63;;;5.88;;
68216;SDS011;55037;52.354;4.992;2023-07-24T06:37:16;11.35;;;5.57;;
68216;SDS011;55037;52.354;4.992;2023-07-24T06:39:48;9.95;;;3.72;;
68216;SDS011;55037;52.354;4.992;2023-07-24T06:42:15;11.27;;;4.03;;
68216;SDS011;55037;52.354;4.992;2023-07-24T06:44:43;13.73;;;5.03;;
68216;SDS011;55037;52.354;4.992;2023-07-24T06:47:10;15.23;;;6.43;;
68216;SDS011;55037;52.354;4.992;2023-07-24T06:49:37;12.15;;;5.28;;
68216;SDS011;55037;52.354;4.992;2023-07-24T06:52:05;11.77;;;5.13;;
68216;SDS011;55037;52.354;4.992;2023-07-24T06:54:32;9.55;;;4.85;;
68216;SDS011;55037;52.354;4.992;2023-07-24T06:57:00;11.27;;;5.60;;
68216;SDS011;55037;52.354;4.992;2023-07-24T06:59:27;7.38;;;3.88;;
68216;SDS011;55037;52.354;4.992;2023-07-24T07:01:54;13.60;;;5.40;;
68216;SDS011;55037;52.354;4.992;2023-07-24T07:04:22;12.55;;;5.68;;
68216;SDS011;55037;52.354;4.992;2023-07-24T07:06:49;11.82;;;5.88;;
68216;SDS011;55037;52.354;4.992;2023-07-24T07:09:16;11.50;;;5.13;;
68216;SDS011;55037;52.354;4.992;2023-07-24T07:11:43;10.57;;;4.45;;
68216;SDS011;55037;52.354;4.992;2023-07-24T07:14:11;12.23;;;4.95;;
68216;SDS011;55037;52.354;4.992;2023-07-24T07:16:39;11.90;;;3.88;;
68216;SDS011;55037;52.354;4.992;2023-07-24T07:19:07;14.15;;;6.10;;
68216;SDS011;55037;52.354;4.992;2023-07-24T07:21:36;9.90;;;4.17;;
68216;SDS011;55037;52.354;4.992;2023-07-24T07:24:03;10.20;;;4.38;;
68216;SDS011;55037;52.354;4.992;2023-07-24T07:26:31;14.43;;;5.32;;
68216;SDS011;55037;52.354;4.992;2023-07-24T07:28:59;12.13;;;5.25;;
68216;SDS011;55037;52.354;4.992;2023-07-24T07:31:26;10.68;;;4.78;;
68216;SDS011;55037;52.354;4.992;2023-07-24T07:33:53;8.97;;;4.23;;
68216;SDS011;55037;52.354;4.992;2023-07-24T07:36:21;9.40;;;4.90;;
68216;SDS011;55037;52.354;4.992;2023-07-24T07:38:49;9.68;;;4.00;;
68216;SDS011;55037;52.354;4.992;2023-07-24T07:41:17;11.50;;;4.70;;
68216;SDS011;55037;52.354;4.992;2023-07-24T07:43:44;10.23;;;4.60;;
68216;SDS011;55037;52.354;4.992;2023-07-24T07:46:11;11.57;;;5.53;;
68216;SDS011;55037;52.354;4.992;2023-07-24T07:48:38;12.82;;;4.07;;
68216;SDS011;55037;52.354;4.992;2023-07-24T07:51:06;13.57;;;5.75;;
68216;SDS011;55037;52.354;4.992;2023-07-24T07:53:34;7.35;;;3.90;;
68216;SDS011;55037;52.354;4.992;2023-07-24T07:56:01;12.02;;;5.00;;
68216;SDS011;55037;52.354;4.992;2023-07-24T07:58:28;9.50;;;4.73;;
68216;SDS011;55037;52.354;4.992;2023-07-24T08:00:56;12.95;;;5.57;;
68216;SDS011;55037;52.354;4.992;2023-07-24T08:03:23;13.73;;;4.50;;
68216;SDS011;55037;52.354;4.992;2023-07-24T08:05:51;12.30;;;5.05;;
68216;SDS011;55037;52.354;4.992;2023-07-24T08:08:18;14.38;;;5.90;;
68216;SDS011;55037;52.354;4.992;2023-07-24T08:10:45;11.33;;;3.70;;
68216;SDS011;55037;52.354;4.992;2023-07-24T08:13:12;10.02;;;4.40;;
68216;SDS011;55037;52.354;4.992;2023-07-24T08:15:40;8.77;;;4.70;;
68216;SDS011;55037;52.354;4.992;2023-07-24T08:18:07;11.20;;;5.32;;
68216;SDS011;55037;52.354;4.992;2023-07-24T08:20:35;7.70;;;4.07;;
68216;SDS011;55037;52.354;4.992;2023-07-24T08:23:04;13.00;;;4.37;;
68216;SDS011;55037;52.354;4.992;2023-07-24T08:25:31;8.85;;;4.63;;
68216;SDS011;55037;52.354;4.992;2023-07-24T08:27:58;11.18;;;4.25;;
68216;SDS011;55037;52.354;4.992;2023-07-24T08:30:32;10.95;;;5.35;;
68216;SDS011;55037;52.354;4.992;2023-07-24T08:33:01;11.85;;;4.40;;
68216;SDS011;55037;52.354;4.992;2023-07-24T08:35:28;9.30;;;4.53;;
68216;SDS011;55037;52.354;4.992;2023-07-24T08:37:58;9.57;;;4.50;;
68216;SDS011;55037;52.354;4.992;2023-07-24T08:40:25;12.88;;;5.47;;
68216;SDS011;55037;52.354;4.992;2023-07-24T08:42:53;11.02;;;4.47;;
68216;SDS011;55037;52.354;4.992;2023-07-24T08:45:21;10.77;;;4.85;;
68216;SDS011;55037;52.354;4.992;2023-07-24T08:47:50;7.37;;;3.70;;
68216;SDS011;55037;52.354;4.992;2023-07-24T08:50:18;9.48;;;4.10;;
68216;SDS011;55037;52.354;4.992;2023-07-24T08:52:46;14.00;;;5.00;;
68216;SDS011;55037;52.354;4.992;2023-07-24T08:55:13;8.88;;;4.93;;
68216;SDS011;55037;52.354;4.992;2023-07-24T08:57:41;8.98;;;4.43;;
68216;SDS011;55037;52.354;4.992;2023-07-24T09:00:09;8.53;;;4.00;;
68216;SDS011;55037;52.354;4.992;2023-07-24T09:02:36;8.05;;;4.18;;
68216;SDS011;55037;52.354;4.992;2023-07-24T09:05:04;9.60;;;4.90;;
68216;SDS011;55037;52.354;4.992;2023-07-24T09:07:32;10.13;;;5.00;;
68216;SDS011;55037;52.354;4.992;2023-07-24T09:09:59;10.57;;;4.10;;
68216;SDS011;55037;52.354;4.992;2023-07-24T09:12:26;9.67;;;5.13;;
68216;SDS011;55037;52.354;4.992;2023-07-24T09:15:03;7.57;;;3.92;;
68216;SDS011;55037;52.354;4.992;2023-07-24T09:17:33;11.27;;;5.05;;
68216;SDS011;55037;52.354;4.992;2023-07-24T09:20:01;12.70;;;4.35;;
68216;SDS011;55037;52.354;4.992;2023-07-24T09:22:30;6.53;;;3.58;;
68216;SDS011;55037;52.354;4.992;2023-07-24T09:25:00;10.07;;;5.00;;
68216;SDS011;55037;52.354;4.992;2023-07-24T09:27:30;8.93;;;4.95;;
68216;SDS011;55037;52.354;4.992;2023-07-24T09:29:59;8.50;;;3.78;;
68216;SDS011;55037;52.354;4.992;2023-07-24T09:32:27;8.32;;;4.90;;
68216;SDS011;55037;52.354;4.992;2023-07-24T09:34:55;10.02;;;5.10;;
68216;SDS011;55037;52.354;4.992;2023-07-24T09:37:23;10.63;;;4.67;;
68216;SDS011;55037;52.354;4.992;2023-07-24T09:39:53;8.98;;;4.80;;
68216;SDS011;55037;52.354;4.992;2023-07-24T09:44:57;9.05;;;4.18;;
68216;SDS011;55037;52.354;4.992;2023-07-24T09:47:25;9.43;;;5.28;;
68216;SDS011;55037;52.354;4.992;2023-07-24T09:50:12;8.30;;;4.40;;
68216;SDS011;55037;52.354;4.992;2023-07-24T09:52:40;8.90;;;5.38;;
68216;SDS011;55037;52.354;4.992;2023-07-24T09:55:18;8.38;;;5.20;;
68216;SDS011;55037;52.354;4.992;2023-07-24T09:57:56;8.10;;;4.53;;
68216;SDS011;55037;52.354;4.992;2023-07-24T10:00:25;6.28;;;3.60;;
68216;SDS011;55037;52.354;4.992;2023-07-24T10:02:53;9.00;;;5.03;;
68216;SDS011;55037;52.354;4.992;2023-07-24T10:05:21;8.30;;;4.80;;
68216;SDS011;55037;52.354;4.992;2023-07-24T10:07:48;7.10;;;4.13;;
68216;SDS011;55037;52.354;4.992;2023-07-24T10:10:17;7.90;;;5.07;;
68216;SDS011;55037;52.354;4.992;2023-07-24T10:12:45;7.75;;;4.78;;
68216;SDS011;55037;52.354;4.992;2023-07-24T10:15:12;9.40;;;4.27;;
68216;SDS011;55037;52.354;4.992;2023-07-24T10:17:41;9.30;;;4.68;;
68216;SDS011;55037;52.354;4.992;2023-07-24T10:20:10;5.03;;;3.50;;
68216;SDS011;55037;52.354;4.992;2023-07-24T10:22:42;7.57;;;4.70;;
68216;SDS011;55037;52.354;4.992;2023-07-24T10:25:10;8.15;;;4.90;;
68216;SDS011;55037;52.354;4.992;2023-07-24T10:27:44;8.50;;;4.80;;
68216;SDS011;55037;52.354;4.992;2023-07-24T10:30:13;7.60;;;4.15;;
68216;SDS011;55037;52.354;4.992;2023-07-24T10:33:11;8.10;;;4.72;;
68216;SDS011;55037;52.354;4.992;2023-07-24T10:35:44;7.28;;;4.63;;
68216;SDS011;55037;52.354;4.992;2023-07-24T10:38:14;5.78;;;3.92;;
68216;SDS011;55037;52.354;4.992;2023-07-24T10:40:44;7.60;;;4.33;;
68216;SDS011;55037;52.354;4.992;2023-07-24T10:43:19;6.22;;;4.13;;
68216;SDS011;55037;52.354;4.992;2023-07-24T10:45:48;7.20;;;4.18;;
68216;SDS011;55037;52.354;4.992;2023-07-24T10:48:19;5.85;;;3.92;;
68216;SDS011;55037;52.354;4.992;2023-07-24T10:50:48;7.32;;;4.25;;
68216;SDS011;55037;52.354;4.992;2023-07-24T10:53:20;6.07;;;3.70;;
68216;SDS011;55037;52.354;4.992;2023-07-24T10:55:50;5.18;;;3.67;;
68216;SDS011;55037;52.354;4.992;2023-07-24T10:58:19;8.73;;;4.55;;
68216;SDS011;55037;52.354;4.992;2023-07-24T11:00:46;6.22;;;4.30;;
68216;SDS011;55037;52.354;4.992;2023-07-24T11:03:14;7.45;;;4.75;;
68216;SDS011;55037;52.354;4.992;2023-07-24T11:05:44;8.07;;;4.77;;
68216;SDS011;55037;52.354;4.992;2023-07-24T11:08:16;7.00;;;4.30;;
68216;SDS011;55037;52.354;4.992;2023-07-24T11:13:14;7.13;;;4.18;;
68216;SDS011;55037;52.354;4.992;2023-07-24T11:15:49;7.10;;;4.70;;
68216;SDS011;55037;52.354;4.992;2023-07-24T11:18:17;6.17;;;4.60;;
68216;SDS011;55037;52.354;4.992;2023-07-24T11:20:45;8.20;;;4.50;;
68216;SDS011;55037;52.354;4.992;2023-07-24T11:23:14;7.95;;;4.60;;
68216;SDS011;55037;52.354;4.992;2023-07-24T11:25:42;8.02;;;4.80;;
68216;SDS011;55037;52.354;4.992;2023-07-24T11:28:10;7.40;;;4.60;;
68216;SDS011;55037;52.354;4.992;2023-07-24T11:30:39;7.27;;;4.40;;
68216;SDS011;55037;52.354;4.992;2023-07-24T11:33:08;9.77;;;5.13;;
68216;SDS011;55037;52.354;4.992;2023-07-24T11:35:37;6.47;;;4.13;;
68216;SDS011;55037;52.354;4.992;2023-07-24T11:38:07;6.18;;;3.92;;
68216;SDS011;55037;52.354;4.992;2023-07-24T11:40:40;5.30;;;2.67;;
68216;SDS011;55037;52.354;4.992;2023-07-24T11:43:14;5.20;;;3.20;;
68216;SDS011;55037;52.354;4.992;2023-07-24T11:45:44;5.88;;;4.03;;
68216;SDS011;55037;52.354;4.992;2023-07-24T11:48:12;6.28;;;4.30;;
68216;SDS011;55037;52.354;4.992;2023-07-24T11:50:43;5.82;;;3.80;;
68216;SDS011;55037;52.354;4.992;2023-07-24T11:53:21;4.45;;;3.53;;
68216;SDS011;55037;52.354;4.992;2023-07-24T11:55:57;4.70;;;3.60;;
68216;SDS011;55037;52.354;4.992;2023-07-24T11:58:26;5.57;;;3.22;;
68216;SDS011;55037;52.354;4.992;2023-07-24T12:00:56;6.22;;;3.47;;
68216;SDS011;55037;52.354;4.992;2023-07-24T12:03:24;5.32;;;3.05;;
68216;SDS011;55037;52.354;4.992;2023-07-24T12:05:53;5.35;;;3.70;;
68216;SDS011;55037;52.354;4.992;2023-07-24T12:08:29;4.93;;;3.83;;
68216;SDS011;55037;52.354;4.992;2023-07-24T12:11:00;4.32;;;3.15;;
68216;SDS011;55037;52.354;4.992;2023-07-24T12:13:29;4.80;;;3.05;;
68216;SDS011;55037;52.354;4.992;2023-07-24T12:15:58;4.88;;;3.70;;
68216;SDS011;55037;52.354;4.992;2023-07-24T12:18:25;5.35;;;3.30;;
68216;SDS011;55037;52.354;4.992;2023-07-24T12:20:53;4.77;;;3.30;;
68216;SDS011;55037;52.354;4.992;2023-07-24T12:23:20;4.00;;;2.70;;
68216;SDS011;55037;52.354;4.992;2023-07-24T12:25:47;3.40;;;2.28;;
68216;SDS011;55037;52.354;4.992;2023-07-24T12:28:15;4.50;;;3.20;;
68216;SDS011;55037;52.354;4.992;2023-07-24T12:30:42;3.92;;;2.90;;
68216;SDS011;55037;52.354;4.992;2023-07-24T12:33:09;3.87;;;3.17;;
68216;SDS011;55037;52.354;4.992;2023-07-24T12:35:37;2.92;;;1.98;;
68216;SDS011;55037;52.354;4.992;2023-07-24T12:38:04;4.03;;;2.80;;
68216;SDS011;55037;52.354;4.992;2023-07-24T12:40:31;4.97;;;2.58;;
68216;SDS011;55037;52.354;4.992;2023-07-24T12:42:59;3.85;;;2.90;;
68216;SDS011;55037;52.354;4.992;2023-07-24T12:45:26;3.63;;;2.83;;
68216;SDS011;55037;52.354;4.992;2023-07-24T12:47:53;4.25;;;3.20;;
68216;SDS011;55037;52.354;4.992;2023-07-24T12:50:22;4.30;;;2.53;;
68216;SDS011;55037;52.354;4.992;2023-07-24T12:52:50;4.03;;;2.70;;
68216;SDS011;55037;52.354;4.992;2023-07-24T12:55:17;3.80;;;2.65;;
68216;SDS011;55037;52.354;4.992;2023-07-24T12:57:45;3.67;;;2.10;;
68216;SDS011;55037;52.354;4.992;2023-07-24T13:00:12;4.70;;;2.15;;
68216;SDS011;55037;52.354;4.992;2023-07-24T13:02:39;3.45;;;2.50;;
68216;SDS011;55037;52.354;4.992;2023-07-24T13:05:07;5.60;;;2.20;;
68216;SDS011;55037;52.354;4.992;2023-07-24T13:07:35;4.10;;;3.15;;
68216;SDS011;55037;52.354;4.992;2023-07-24T13:10:02;7.30;;;3.13;;
68216;SDS011;55037;52.354;4.992;2023-07-24T13:12:30;6.30;;;3.00;;
68216;SDS011;55037;52.354;4.992;2023-07-24T13:14:58;5.38;;;3.08;;
68216;SDS011;55037;52.354;4.992;2023-07-24T13:17:25;5.15;;;2.70;;
68216;SDS011;55037;52.354;4.992;2023-07-24T13:19:53;5.20;;;2.67;;
68216;SDS011;55037;52.354;4.992;2023-07-24T13:22:20;7.00;;;2.90;;
68216;SDS011;55037;52.354;4.992;2023-07-24T13:24:47;9.50;;;2.38;;
68216;SDS011;55037;52.354;4.992;2023-07-24T13:27:15;7.18;;;3.00;;
68216;SDS011;55037;52.354;4.992;2023-07-24T13:29:42;6.43;;;3.08;;
68216;SDS011;55037;52.354;4.992;2023-07-24T13:32:09;5.75;;;3.08;;
68216;SDS011;55037;52.354;4.992;2023-07-24T13:34:37;8.10;;;3.07;;
68216;SDS011;55037;52.354;4.992;2023-07-24T13:37:04;6.30;;;2.30;;
68216;SDS011;55037;52.354;4.992;2023-07-24T13:39:32;6.22;;;2.80;;
68216;SDS011;55037;52.354;4.992;2023-07-24T13:42:01;7.45;;;2.40;;
68216;SDS011;55037;52.354;4.992;2023-07-24T13:44:28;5.10;;;2.30;;
68216;SDS011;55037;52.354;4.992;2023-07-24T13:46:55;5.80;;;2.93;;
68216;SDS011;55037;52.354;4.992;2023-07-24T13:49:23;6.35;;;3.10;;
68216;SDS011;55037;52.354;4.992;2023-07-24T13:51:50;5.28;;;2.38;;
68216;SDS011;55037;52.354;4.992;2023-07-24T13:54:17;7.18;;;3.65;;
68216;SDS011;55037;52.354;4.992;2023-07-24T13:56:45;5.78;;;2.80;;
68216;SDS011;55037;52.354;4.992;2023-07-24T13:59:12;5.10;;;2.83;;
68216;SDS011;55037;52.354;4.992;2023-07-24T14:01:39;7.30;;;2.90;;
68216;SDS011;55037;52.354;4.992;2023-07-24T14:04:09;5.13;;;2.80;;
68216;SDS011;55037;52.354;4.992;2023-07-24T14:06:38;8.27;;;2.72;;
68216;SDS011;55037;52.354;4.992;2023-07-24T14:09:05;5.88;;;2.47;;
68216;SDS011;55037;52.354;4.992;2023-07-24T14:11:33;3.73;;;1.90;;
68216;SDS011;55037;52.354;4.992;2023-07-24T14:14:00;5.00;;;2.20;;
68216;SDS011;55037;52.354;4.992;2023-07-24T14:16:28;5.75;;;2.75;;
68216;SDS011;55037;52.354;4.992;2023-07-24T14:18:55;5.65;;;2.40;;
68216;SDS011;55037;52.354;4.992;2023-07-24T14:21:22;4.13;;;2.17;;
68216;SDS011;55037;52.354;4.992;2023-07-24T14:23:50;5.10;;;2.17;;
68216;SDS011;55037;52.354;4.992;2023-07-24T14:26:17;4.63;;;2.33;;
68216;SDS011;55037;52.354;4.992;2023-07-24T14:28:44;7.18;;;2.25;;
68216;SDS011;55037;52.354;4.992;2023-07-24T14:31:12;6.35;;;2.30;;
68216;SDS011;55037;52.354;4.992;2023-07-24T14:33:39;4.43;;;2.17;;
68216;SDS011;55037;52.354;4.992;2023-07-24T14:36:06;5.17;;;2.47;;
68216;SDS011;55037;52.354;4.992;2023-07-24T14:38:34;4.95;;;2.08;;
68216;SDS011;55037;52.354;4.992;2023-07-24T14:41:01;5.35;;;2.35;;
68216;SDS011;55037;52.354;4.992;2023-07-24T14:43:28;6.70;;;2.67;;
68216;SDS011;55037;52.354;4.992;2023-07-24T14:45:56;2.85;;;1.60;;
68216;SDS011;55037;52.354;4.992;2023-07-24T14:48:23;2.00;;;1.30;;
68216;SDS011;55037;52.354;4.992;2023-07-24T14:50:50;3.65;;;1.85;;
68216;SDS011;55037;52.354;4.992;2023-07-24T14:53:17;3.22;;;2.05;;
68216;SDS011;55037;52.354;4.992;2023-07-24T14:55:45;4.13;;;1.45;;
68216;SDS011;55037;52.354;4.992;2023-07-24T14:58:12;3.28;;;1.60;;